Time;durP1;ratioP1;P1;durP2;ratioP2;P2;SDS_P1;SDS_P2;PMS_P1;PMS_P2;Temp;Humidity;BMP_temperature;BMP_pressure;BME280_temperature;BME280_humidity;BME280_pressure;Samples;Min_cycle;Max_cycle;Signal;HPM_P1;HPM_P2
2021/09/28 00:00:31;;;;;;;;;;;;;;;;;;2073428;28;46248;-66
2021/09/28 00:01:32;;;;;;;;;;;;;;;;;;2074000;28;46429;-68
2021/09/28 00:02:34;;;;;;;;;;;;;;;;;;2073418;28;45416;-69
2021/09/28 00:03:37;;;;;;;;;;;;;;;;;;2081583;28;46657;-69
2021/09/28 00:04:38;;;;;;;;;;;;;;;;;;2082085;28;44598;-69
2021/09/28 00:05:48;;;;;;;;;;;;;;;;;;2081309;28;45490;-69
2021/09/28 00:06:50;;;;;;;;;;;;;;;;;;2081492;28;46725;-69
2021/09/28 00:07:54;;;;;;;;;;;;;;;;;;2072690;28;42552;-68
2021/09/28 00:08:55;;;;;;;;;;;;;;;;;;2073167;28;44376;-67
2021/09/28 00:09:57;;;;;;;;;;;;;;;;;;2081242;28;46486;-68
2021/09/28 00:10:58;;;;;;;;;;;;;;;;;;2081603;28;45243;-69
2021/09/28 00:12:00;;;;;;;;;;;;;;;;;;2081639;28;45186;-69
2021/09/28 00:13:02;;;;;;;;;;;;;;;;;;2081574;28;43812;-68
2021/09/28 00:14:04;;;;;;;;;;;;;;;;;;2081241;28;44328;-70
2021/09/28 00:15:06;;;;;;;;;;;;;;;;;;2081256;28;45615;-69
2021/09/28 00:16:07;;;;;;;;;;;;;;;;;;2073293;28;46671;-70
2021/09/28 00:17:09;;;;;;;;;;;;;;;;;;2074041;28;44467;-69
2021/09/28 00:18:10;;;;;;;;;;;;;;;;;;2073220;28;44298;-70
2021/09/28 00:19:12;;;;;;;;;;;;;;;;;;2081540;28;45020;-70
2021/09/28 00:20:13;;;;;;;;;;;;;;;;;;2081237;28;45659;-69
2021/09/28 00:21:15;;;;;;;;;;;;;;;;;;2081106;28;44118;-68
2021/09/28 00:22:17;;;;;;;;;;;;;;;;;;2072411;28;43030;-69
2021/09/28 00:23:18;;;;;;;;;;;;;;;;;;2073313;28;43557;-68
2021/09/28 00:24:20;;;;;;;;;;;;;;;;;;2081152;28;45244;-68
2021/09/28 00:25:24;;;;;;;;;;;;;;;;;;2081324;28;45403;-69
2021/09/28 00:26:25;;;;;;;;;;;;;;;;;;2080687;28;45834;-69
2021/09/28 00:27:27;;;;;;;;;;;;;;;;;;2073284;28;44032;-69
2021/09/28 00:28:30;;;;;;;;;;;;;;;;;;2064508;28;44136;-69
2021/09/28 00:29:31;;;;;;;;;;;;;;;;;;2073651;28;47538;-69
2021/09/28 00:30:33;;;;;;;;;;;;;;;;;;2080885;28;46473;-68
2021/09/28 00:31:34;;;;;;;;;;;;;;;;;;2081448;28;46477;-68
2021/09/28 00:32:36;;;;;;;;;;;;;;;;;;2081023;28;46605;-69
2021/09/28 00:33:38;;;;;;;;;;;;;;;;;;2081910;28;45572;-68
2021/09/28 00:34:40;;;;;;;;;;;;;;;;;;2076631;28;44918;-69
2021/09/28 00:35:41;;;;;;;;;;;;;;;;;;2080994;28;47545;-68
2021/09/28 00:36:43;;;;;;;;;;;;;;;;;;2081859;28;45793;-69
2021/09/28 00:37:44;;;;;;;;;;;;;;;;;;2081254;28;46230;-69
2021/09/28 00:38:46;;;;;;;;;;;;;;;;;;2080959;28;45942;-68
2021/09/28 00:39:47;;;;;;;;;;;;;;;;;;2073193;28;44201;-68
2021/09/28 00:40:49;;;;;;;;;;;;;;;;;;2081670;28;43845;-69
2021/09/28 00:41:51;;;;;;;;;;;;;;;;;;2081118;28;43473;-69
2021/09/28 00:42:52;;;;;;;;;;;;;;;;;;2081598;28;43925;-68
2021/09/28 00:43:54;;;;;;;;;;;;;;;;;;2089406;28;45967;-69
2021/09/28 00:44:56;;;;;;;;;;;;;;;;;;2081241;28;47066;-69
2021/09/28 00:45:57;;;;;;;;;;;;;;;;;;2080709;28;46123;-69
2021/09/28 00:46:59;;;;;;;;;;;;;;;;;;2081247;28;45720;-68
2021/09/28 00:48:00;;;;;;;;;;;;;;;;;;2080398;28;45557;-69
2021/09/28 00:49:02;;;;;;;;;;;;;;;;;;2080634;28;45900;-69
2021/09/28 00:50:04;;;;;;;;;;;;;;;;;;2081039;28;43264;-68
2021/09/28 00:51:05;;;;;;;;;;;;;;;;;;2089160;28;47290;-69
2021/09/28 00:52:10;;;;;;;;;;;;;;;;;;2080867;28;45186;-69
2021/09/28 00:53:12;;;;;;;;;;;;;;;;;;2081323;28;45932;-69
2021/09/28 00:54:13;;;;;;;;;;;;;;;;;;2081203;28;47179;-68
2021/09/28 00:55:16;;;;;;;;;;;;;;;;;;2081437;28;45381;-68
2021/09/28 00:56:18;;;;;;;;;;;;;;;;;;2081310;28;47074;-68
2021/09/28 00:57:20;;;;;;;;;;;;;;;;;;2073462;28;45131;-70
2021/09/28 00:58:21;;;;;;;;;;;;;;;;;;2080175;28;44597;-69
2021/09/28 00:59:23;;;;;;;;;;;;;;;;;;2089695;28;44901;-68
2021/09/28 01:00:24;;;;;;;;;;;;;;;;;;2080857;28;46686;-70
2021/09/28 01:01:26;;;;;;;;;;;;;;;;;;2081056;28;45277;-69
2021/09/28 01:02:27;;;;;;;;;;;;;;;;;;2089083;28;42358;-68
2021/09/28 01:03:30;;;;;;;;;;;;;;;;;;2081131;28;44021;-68
2021/09/28 01:04:32;;;;;;;;;;;;;;;;;;2081511;28;43566;-69
2021/09/28 01:05:33;;;;;;;;;;;;;;;;;;2089297;28;44950;-68
2021/09/28 01:06:35;;;;;;;;;;;;;;;;;;2088972;28;45682;-69
2021/09/28 01:07:36;;;;;;;;;;;;;;;;;;2088706;28;46715;-70
2021/09/28 01:08:38;;;;;;;;;;;;;;;;;;2088665;28;46713;-69
2021/09/28 01:09:39;;;;;;;;;;;;;;;;;;2089291;28;42611;-68
2021/09/28 01:10:41;;;;;;;;;;;;;;;;;;2080863;28;45488;-69
2021/09/28 01:11:43;;;;;;;;;;;;;;;;;;2080996;28;46213;-68
2021/09/28 01:12:44;;;;;;;;;;;;;;;;;;2080903;28;46778;-70
2021/09/28 01:13:45;;;;;;;;;;;;;;;;;;2081071;28;45680;-70
2021/09/28 01:14:47;;;;;;;;;;;;;;;;;;2089423;28;43425;-70
2021/09/28 01:16:00;;;;;;;;;;;;;;;;;;2089058;28;42342;-70
2021/09/28 01:17:03;;;;;;;;;;;;;;;;;;2087877;28;43489;-69
2021/09/28 01:18:04;;;;;;;;;;;;;;;;;;2081271;28;44330;-69
2021/09/28 01:19:05;;;;;;;;;;;;;;;;;;2081429;28;45231;-69
2021/09/28 01:20:07;;;;;;;;;;;;;;;;;;2080979;28;45412;-69
2021/09/28 01:21:13;;;;;;;;;;;;;;;;;;2081066;28;44126;-70
2021/09/28 01:22:15;;;;;;;;;;;;;;;;;;2081469;28;45367;-69
2021/09/28 01:23:16;;;;;;;;;;;;;;;;;;2080956;28;45361;-69
2021/09/28 01:24:18;;;;;;;;;;;;;;;;;;2080839;28;44116;-69
2021/09/28 01:25:19;;;;;;;;;;;;;;;;;;2081556;28;46540;-69
2021/09/28 01:26:24;;;;;;;;;;;;;;;;;;2080734;28;46584;-69
2021/09/28 01:27:26;;;;;;;;;;;;;;;;;;2073162;28;44314;-69
2021/09/28 01:28:27;;;;;;;;;;;;;;;;;;2072201;28;45606;-69
2021/09/28 01:29:29;;;;;;;;;;;;;;;;;;2072949;28;46546;-69
2021/09/28 01:30:31;;;;;;;;;;;;;;;;;;2080878;28;45349;-69
2021/09/28 01:31:32;;;;;;;;;;;;;;;;;;2080646;28;44292;-68
2021/09/28 01:32:33;;;;;;;;;;;;;;;;;;2080697;28;43226;-68
2021/09/28 01:33:35;;;;;;;;;;;;;;;;;;2088798;28;45457;-69
2021/09/28 01:34:36;;;;;;;;;;;;;;;;;;2089364;28;43700;-69
2021/09/28 01:35:39;;;;;;;;;;;;;;;;;;2080814;28;45439;-69
2021/09/28 01:36:41;;;;;;;;;;;;;;;;;;2080873;28;46430;-69
2021/09/28 01:37:43;;;;;;;;;;;;;;;;;;2080308;28;44471;-69
2021/09/28 01:38:45;;;;;;;;;;;;;;;;;;2080582;28;45410;-69
2021/09/28 01:39:46;;;;;;;;;;;;;;;;;;2081251;28;45417;-69
2021/09/28 01:40:48;;;;;;;;;;;;;;;;;;2080911;28;47283;-69
2021/09/28 01:41:49;;;;;;;;;;;;;;;;;;2080770;28;46135;-69
2021/09/28 01:42:51;;;;;;;;;;;;;;;;;;2080879;28;46876;-69
2021/09/28 01:44:03;;;;;;;;;;;;;;;;;;2088951;28;45891;-68
2021/09/28 01:45:05;;;;;;;;;;;;;;;;;;2087456;28;47301;-69
2021/09/28 01:46:07;;;;;;;;;;;;;;;;;;2080961;28;46191;-68
2021/09/28 01:47:08;;;;;;;;;;;;;;;;;;2080644;28;45664;-69
2021/09/28 01:48:10;;;;;;;;;;;;;;;;;;2080064;28;47098;-69
2021/09/28 01:49:12;;;;;;;;;;;;;;;;;;2080349;28;45962;-70
2021/09/28 01:50:13;;;;;;;;;;;;;;;;;;2080659;28;46091;-70
2021/09/28 01:51:15;;;;;;;;;;;;;;;;;;2081400;28;46952;-70
2021/09/28 01:52:16;;;;;;;;;;;;;;;;;;2080923;28;44935;-69
2021/09/28 01:53:18;;;;;;;;;;;;;;;;;;2081698;28;44322;-69
2021/09/28 01:54:19;;;;;;;;;;;;;;;;;;2080658;28;43873;-69
2021/09/28 01:55:21;;;;;;;;;;;;;;;;;;2080687;28;44619;-69
2021/09/28 01:56:27;;;;;;;;;;;;;;;;;;2080462;28;47440;-69
2021/09/28 01:57:28;;;;;;;;;;;;;;;;;;2073139;28;47318;-68
2021/09/28 01:58:29;;;;;;;;;;;;;;;;;;2079889;28;46984;-69
2021/09/28 01:59:31;;;;;;;;;;;;;;;;;;2081148;28;45732;-70
2021/09/28 02:00:32;;;;;;;;;;;;;;;;;;2080345;28;45899;-69
2021/09/28 02:01:34;;;;;;;;;;;;;;;;;;2080525;28;46925;-69
2021/09/28 02:02:36;;;;;;;;;;;;;;;;;;2080953;28;43962;-69
2021/09/28 02:03:37;;;;;;;;;;;;;;;;;;2080867;28;46757;-70
2021/09/28 02:04:39;;;;;;;;;;;;;;;;;;2080426;28;45508;-69
2021/09/28 02:05:40;;;;;;;;;;;;;;;;;;2080664;28;44072;-70
2021/09/28 02:06:44;;;;;;;;;;;;;;;;;;2080147;28;45272;-69
2021/09/28 02:07:45;;;;;;;;;;;;;;;;;;2079998;28;46462;-70
2021/09/28 02:08:47;;;;;;;;;;;;;;;;;;2088079;28;45299;-69
2021/09/28 02:09:48;;;;;;;;;;;;;;;;;;2088342;28;43817;-69
2021/09/28 02:10:50;;;;;;;;;;;;;;;;;;2081012;28;45130;-68
2021/09/28 02:11:51;;;;;;;;;;;;;;;;;;2081207;28;45816;-69
2021/09/28 02:12:52;;;;;;;;;;;;;;;;;;2081198;28;45113;-68
2021/09/28 02:13:54;;;;;;;;;;;;;;;;;;2080618;28;46549;-69
2021/09/28 02:14:56;;;;;;;;;;;;;;;;;;2080631;28;44324;-69
2021/09/28 02:15:57;;;;;;;;;;;;;;;;;;2088450;28;44010;-69
2021/09/28 02:16:58;;;;;;;;;;;;;;;;;;2080918;28;45373;-68
2021/09/28 02:18:00;;;;;;;;;;;;;;;;;;2080625;28;45041;-69
2021/09/28 02:19:02;;;;;;;;;;;;;;;;;;2080857;28;46307;-68
2021/09/28 02:20:03;;;;;;;;;;;;;;;;;;2080599;28;46663;-68
2021/09/28 02:21:05;;;;;;;;;;;;;;;;;;2080703;28;46519;-68
2021/09/28 02:22:06;;;;;;;;;;;;;;;;;;2080556;28;45324;-69
2021/09/28 02:23:08;;;;;;;;;;;;;;;;;;2072457;28;45470;-68
2021/09/28 02:24:10;;;;;;;;;;;;;;;;;;2080908;28;46818;-68
2021/09/28 02:25:13;;;;;;;;;;;;;;;;;;2088694;28;46541;-69
2021/09/28 02:26:15;;;;;;;;;;;;;;;;;;2088575;28;48319;-68
2021/09/28 02:27:16;;;;;;;;;;;;;;;;;;2080456;28;46688;-68
2021/09/28 02:28:18;;;;;;;;;;;;;;;;;;2080017;28;44903;-69
2021/09/28 02:29:19;;;;;;;;;;;;;;;;;;2080595;28;46895;-68
2021/09/28 02:30:21;;;;;;;;;;;;;;;;;;2080631;28;45453;-68
2021/09/28 02:31:22;;;;;;;;;;;;;;;;;;2080283;28;46620;-69
2021/09/28 02:32:23;;;;;;;;;;;;;;;;;;2080397;28;46326;-69
2021/09/28 02:33:25;;;;;;;;;;;;;;;;;;2081115;28;45437;-68
2021/09/28 02:34:26;;;;;;;;;;;;;;;;;;2080153;28;45655;-69
2021/09/28 02:35:28;;;;;;;;;;;;;;;;;;2080609;28;45420;-68
2021/09/28 02:36:29;;;;;;;;;;;;;;;;;;2088693;28;44554;-67
2021/09/28 02:37:31;;;;;;;;;;;;;;;;;;2088569;28;45328;-69
2021/09/28 02:38:32;;;;;;;;;;;;;;;;;;2080028;28;46525;-69
2021/09/28 02:39:36;;;;;;;;;;;;;;;;;;2080525;28;44505;-69
2021/09/28 02:40:38;;;;;;;;;;;;;;;;;;2080941;28;48828;-68
2021/09/28 02:41:39;;;;;;;;;;;;;;;;;;2080767;28;43845;-68
2021/09/28 02:42:43;;;;;;;;;;;;;;;;;;2080650;28;46532;-69
2021/09/28 02:43:44;;;;;;;;;;;;;;;;;;2088508;28;42698;-68
2021/09/28 02:44:48;;;;;;;;;;;;;;;;;;2080389;28;46513;-69
2021/09/28 02:45:50;;;;;;;;;;;;;;;;;;2082744;28;45564;-68
2021/09/28 02:46:52;;;;;;;;;;;;;;;;;;2081613;28;47074;-68
2021/09/28 02:47:53;;;;;;;;;;;;;;;;;;2081403;28;46129;-69
2021/09/28 02:48:55;;;;;;;;;;;;;;;;;;2089757;28;46890;-67
2021/09/28 02:49:56;;;;;;;;;;;;;;;;;;2081866;28;46986;-66
2021/09/28 02:50:58;;;;;;;;;;;;;;;;;;2081915;28;45765;-66
2021/09/28 02:51:59;;;;;;;;;;;;;;;;;;2082462;28;47290;-67
2021/09/28 02:53:02;;;;;;;;;;;;;;;;;;2082434;28;47065;-67
2021/09/28 02:54:03;;;;;;;;;;;;;;;;;;2081809;28;46364;-66
2021/09/28 02:55:05;;;;;;;;;;;;;;;;;;2081885;28;44823;-66
2021/09/28 02:56:07;;;;;;;;;;;;;;;;;;2089814;28;47134;-66
2021/09/28 02:57:08;;;;;;;;;;;;;;;;;;2082447;28;45928;-67
2021/09/28 02:58:10;;;;;;;;;;;;;;;;;;2081875;28;46192;-67
2021/09/28 02:59:12;;;;;;;;;;;;;;;;;;2081533;28;47086;-67
2021/09/28 03:00:13;;;;;;;;;;;;;;;;;;2081686;28;46343;-67
2021/09/28 03:01:15;;;;;;;;;;;;;;;;;;2082135;28;46181;-67
2021/09/28 03:02:17;;;;;;;;;;;;;;;;;;2081853;28;46200;-66
2021/09/28 03:03:18;;;;;;;;;;;;;;;;;;2081904;28;46254;-67
2021/09/28 03:04:20;;;;;;;;;;;;;;;;;;2081628;28;45902;-67
2021/09/28 03:05:21;;;;;;;;;;;;;;;;;;2081710;28;46816;-67
2021/09/28 03:06:22;;;;;;;;;;;;;;;;;;2081780;28;44624;-67
2021/09/28 03:07:24;;;;;;;;;;;;;;;;;;2073743;28;44619;-67
2021/09/28 03:08:25;;;;;;;;;;;;;;;;;;2081414;28;47139;-67
2021/09/28 03:09:27;;;;;;;;;;;;;;;;;;2082349;28;45539;-67
2021/09/28 03:10:28;;;;;;;;;;;;;;;;;;2081678;28;46630;-67
2021/09/28 03:11:30;;;;;;;;;;;;;;;;;;2081887;28;45116;-67
2021/09/28 03:12:32;;;;;;;;;;;;;;;;;;2089922;28;46955;-67
2021/09/28 03:13:33;;;;;;;;;;;;;;;;;;2081614;28;46375;-67
2021/09/28 03:14:35;;;;;;;;;;;;;;;;;;2082042;28;42248;-67
2021/09/28 03:15:36;;;;;;;;;;;;;;;;;;2081436;28;44819;-66
2021/09/28 03:16:38;;;;;;;;;;;;;;;;;;2081572;28;45112;-66
2021/09/28 03:17:39;;;;;;;;;;;;;;;;;;2081485;28;45423;-66
2021/09/28 03:18:40;;;;;;;;;;;;;;;;;;2081535;28;45277;-66
2021/09/28 03:19:42;;;;;;;;;;;;;;;;;;2081504;28;45551;-67
2021/09/28 03:20:43;;;;;;;;;;;;;;;;;;2082334;28;45293;-67
2021/09/28 03:21:45;;;;;;;;;;;;;;;;;;2081620;28;44237;-66
2021/09/28 03:22:46;;;;;;;;;;;;;;;;;;2081948;28;43295;-66
2021/09/28 03:23:47;;;;;;;;;;;;;;;;;;2089630;28;45243;-67
2021/09/28 03:24:49;;;;;;;;;;;;;;;;;;2081612;28;44153;-67
2021/09/28 03:25:51;;;;;;;;;;;;;;;;;;2081633;28;45280;-66
2021/09/28 03:26:52;;;;;;;;;;;;;;;;;;2089971;28;43999;-66
2021/09/28 03:27:54;;;;;;;;;;;;;;;;;;2089054;28;46681;-67
2021/09/28 03:28:55;;;;;;;;;;;;;;;;;;2081836;28;45151;-67
2021/09/28 03:29:57;;;;;;;;;;;;;;;;;;2082052;28;44362;-67
2021/09/28 03:30:59;;;;;;;;;;;;;;;;;;2081738;28;46528;-68
2021/09/28 03:32:00;;;;;;;;;;;;;;;;;;2073125;28;45455;-68
2021/09/28 03:33:01;;;;;;;;;;;;;;;;;;2073708;28;43660;-67
2021/09/28 03:34:03;;;;;;;;;;;;;;;;;;2081548;28;46477;-67
2021/09/28 03:35:08;;;;;;;;;;;;;;;;;;2089650;28;46010;-66
2021/09/28 03:36:10;;;;;;;;;;;;;;;;;;2082208;28;46141;-67
2021/09/28 03:37:12;;;;;;;;;;;;;;;;;;2082296;28;45381;-67
2021/09/28 03:38:13;;;;;;;;;;;;;;;;;;2081011;28;44326;-67
2021/09/28 03:39:14;;;;;;;;;;;;;;;;;;2073436;28;45420;-67
2021/09/28 03:40:16;;;;;;;;;;;;;;;;;;2081502;28;45357;-67
2021/09/28 03:41:17;;;;;;;;;;;;;;;;;;2081907;28;44513;-67
2021/09/28 03:42:19;;;;;;;;;;;;;;;;;;2081908;28;45290;-67
2021/09/28 03:43:20;;;;;;;;;;;;;;;;;;2089708;28;45535;-67
2021/09/28 03:44:22;;;;;;;;;;;;;;;;;;2081417;28;45482;-67
2021/09/28 03:45:23;;;;;;;;;;;;;;;;;;2081550;28;45403;-67
2021/09/28 03:46:25;;;;;;;;;;;;;;;;;;2081238;28;45620;-66
2021/09/28 03:47:26;;;;;;;;;;;;;;;;;;2073325;28;46587;-68
2021/09/28 03:48:28;;;;;;;;;;;;;;;;;;2080802;28;43485;-68
2021/09/28 03:49:29;;;;;;;;;;;;;;;;;;2081432;28;47888;-67
2021/09/28 03:50:31;;;;;;;;;;;;;;;;;;2081638;28;45880;-68
2021/09/28 03:51:35;;;;;;;;;;;;;;;;;;2081826;28;45495;-67
2021/09/28 03:52:37;;;;;;;;;;;;;;;;;;2081576;28;46513;-68
2021/09/28 03:53:38;;;;;;;;;;;;;;;;;;2081318;28;45396;-68
2021/09/28 03:54:39;;;;;;;;;;;;;;;;;;2081509;28;46995;-67
2021/09/28 03:55:41;;;;;;;;;;;;;;;;;;2089380;28;44486;-68
2021/09/28 03:56:42;;;;;;;;;;;;;;;;;;2081806;28;45526;-67
2021/09/28 03:57:44;;;;;;;;;;;;;;;;;;2081003;28;46098;-68
2021/09/28 03:58:45;;;;;;;;;;;;;;;;;;2089617;28;45726;-68
2021/09/28 03:59:47;;;;;;;;;;;;;;;;;;2089606;28;45839;-68
2021/09/28 04:00:48;;;;;;;;;;;;;;;;;;2089529;28;46952;-68
2021/09/28 04:01:49;;;;;;;;;;;;;;;;;;2081703;28;45636;-68
2021/09/28 04:02:51;;;;;;;;;;;;;;;;;;2081622;28;45637;-68
2021/09/28 04:03:53;;;;;;;;;;;;;;;;;;2081371;28;47201;-68
2021/09/28 04:04:54;;;;;;;;;;;;;;;;;;2081450;28;45802;-68
2021/09/28 04:05:55;;;;;;;;;;;;;;;;;;2081267;28;45737;-68
2021/09/28 04:06:57;;;;;;;;;;;;;;;;;;2089867;28;45483;-67
2021/09/28 04:07:58;;;;;;;;;;;;;;;;;;2088704;28;45972;-67
2021/09/28 04:09:00;;;;;;;;;;;;;;;;;;2081448;28;44841;-67
2021/09/28 04:10:02;;;;;;;;;;;;;;;;;;2081264;28;47123;-67
2021/09/28 04:11:04;;;;;;;;;;;;;;;;;;2082097;28;44790;-67
2021/09/28 04:12:07;;;;;;;;;;;;;;;;;;2081241;28;47194;-67
2021/09/28 04:13:09;;;;;;;;;;;;;;;;;;2073676;28;45994;-67
2021/09/28 04:14:12;;;;;;;;;;;;;;;;;;2073658;28;47077;-67
2021/09/28 04:15:14;;;;;;;;;;;;;;;;;;2081642;28;45581;-66
2021/09/28 04:16:16;;;;;;;;;;;;;;;;;;2089172;28;42209;-67
2021/09/28 04:17:18;;;;;;;;;;;;;;;;;;2081405;28;44385;-67
2021/09/28 04:18:19;;;;;;;;;;;;;;;;;;2080901;28;46606;-67
2021/09/28 04:19:21;;;;;;;;;;;;;;;;;;2089471;28;45111;-68
2021/09/28 04:20:22;;;;;;;;;;;;;;;;;;2081725;28;46463;-67
2021/09/28 04:21:25;;;;;;;;;;;;;;;;;;2081430;28;45266;-67
2021/09/28 04:22:27;;;;;;;;;;;;;;;;;;2073461;28;45632;-68
2021/09/28 04:23:28;;;;;;;;;;;;;;;;;;2073362;28;45323;-68
2021/09/28 04:24:30;;;;;;;;;;;;;;;;;;2073416;28;46312;-68
2021/09/28 04:25:31;;;;;;;;;;;;;;;;;;2081323;28;45136;-68
2021/09/28 04:26:33;;;;;;;;;;;;;;;;;;2082367;28;44782;-67
2021/09/28 04:27:36;;;;;;;;;;;;;;;;;;2081507;28;45271;-68
2021/09/28 04:28:37;;;;;;;;;;;;;;;;;;2081796;28;45546;-67
2021/09/28 04:29:39;;;;;;;;;;;;;;;;;;2081371;28;44263;-67
2021/09/28 04:30:40;;;;;;;;;;;;;;;;;;2081405;28;44093;-68
2021/09/28 04:31:42;;;;;;;;;;;;;;;;;;2081287;28;45597;-67
2021/09/28 04:32:44;;;;;;;;;;;;;;;;;;2081514;28;43922;-68
2021/09/28 04:33:46;;;;;;;;;;;;;;;;;;2089378;28;42591;-67
2021/09/28 04:34:47;;;;;;;;;;;;;;;;;;2089269;28;45402;-67
2021/09/28 04:35:48;;;;;;;;;;;;;;;;;;2081554;28;44061;-67
2021/09/28 04:36:50;;;;;;;;;;;;;;;;;;2081404;28;45714;-67
2021/09/28 04:37:51;;;;;;;;;;;;;;;;;;2088652;28;45313;-67
2021/09/28 04:38:53;;;;;;;;;;;;;;;;;;2081068;28;45352;-67
2021/09/28 04:39:54;;;;;;;;;;;;;;;;;;2081254;28;44040;-67
2021/09/28 04:40:56;;;;;;;;;;;;;;;;;;2081377;28;43974;-66
2021/09/28 04:41:57;;;;;;;;;;;;;;;;;;2081234;28;46594;-67
2021/09/28 04:42:58;;;;;;;;;;;;;;;;;;2089452;28;45443;-66
2021/09/28 04:44:00;;;;;;;;;;;;;;;;;;2089195;28;46623;-66
2021/09/28 04:45:03;;;;;;;;;;;;;;;;;;2089301;28;46934;-67
2021/09/28 04:46:05;;;;;;;;;;;;;;;;;;2089269;28;46659;-67
2021/09/28 04:47:06;;;;;;;;;;;;;;;;;;2089144;28;44508;-66
2021/09/28 04:48:08;;;;;;;;;;;;;;;;;;2088750;28;44109;-67
2021/09/28 04:49:09;;;;;;;;;;;;;;;;;;2080611;28;45458;-67
2021/09/28 04:50:11;;;;;;;;;;;;;;;;;;2081117;28;45319;-67
2021/09/28 04:51:12;;;;;;;;;;;;;;;;;;2081111;28;46532;-67
2021/09/28 04:52:14;;;;;;;;;;;;;;;;;;2072864;28;45426;-67
2021/09/28 04:53:15;;;;;;;;;;;;;;;;;;2081190;28;46625;-67
2021/09/28 04:54:17;;;;;;;;;;;;;;;;;;2081034;28;44017;-67
2021/09/28 04:55:18;;;;;;;;;;;;;;;;;;2081338;28;45094;-67
2021/09/28 04:56:20;;;;;;;;;;;;;;;;;;2088986;28;42699;-67
2021/09/28 04:57:21;;;;;;;;;;;;;;;;;;2081417;28;45399;-67
2021/09/28 04:58:23;;;;;;;;;;;;;;;;;;2072068;28;45825;-67
2021/09/28 04:59:25;;;;;;;;;;;;;;;;;;2073450;28;43690;-67
2021/09/28 05:00:26;;;;;;;;;;;;;;;;;;2080913;28;45352;-66
2021/09/28 05:01:27;;;;;;;;;;;;;;;;;;2080800;28;45767;-68
2021/09/28 05:02:29;;;;;;;;;;;;;;;;;;2080989;28;47230;-67
2021/09/28 05:03:31;;;;;;;;;;;;;;;;;;2089270;28;47247;-67
2021/09/28 05:04:32;;;;;;;;;;;;;;;;;;2080880;28;46000;-67
2021/09/28 05:05:33;;;;;;;;;;;;;;;;;;2081062;28;44610;-66
2021/09/28 05:06:35;;;;;;;;;;;;;;;;;;2080921;28;46043;-66
2021/09/28 05:07:36;;;;;;;;;;;;;;;;;;2079965;28;47398;-66
2021/09/28 05:08:38;;;;;;;;;;;;;;;;;;2088676;28;46579;-67
2021/09/28 05:09:39;;;;;;;;;;;;;;;;;;2081602;28;45912;-66
2021/09/28 05:10:41;;;;;;;;;;;;;;;;;;2081559;28;45791;-67
2021/09/28 05:11:42;;;;;;;;;;;;;;;;;;2081552;28;46217;-66
2021/09/28 05:12:44;;;;;;;;;;;;;;;;;;2089072;28;47330;-67
2021/09/28 05:13:45;;;;;;;;;;;;;;;;;;2089163;28;46916;-67
2021/09/28 05:14:56;;;;;;;;;;;;;;;;;;2081945;28;44605;-68
2021/09/28 05:15:57;;;;;;;;;;;;;;;;;;2081822;28;44161;-69
2021/09/28 05:16:59;;;;;;;;;;;;;;;;;;2080786;28;47069;-69
2021/09/28 05:18:00;;;;;;;;;;;;;;;;;;2080451;28;45214;-69
2021/09/28 05:19:02;;;;;;;;;;;;;;;;;;2089424;28;44626;-69
2021/09/28 05:20:04;;;;;;;;;;;;;;;;;;2081134;28;46969;-69
2021/09/28 05:21:06;;;;;;;;;;;;;;;;;;2072799;28;45378;-68
2021/09/28 05:22:07;;;;;;;;;;;;;;;;;;2072747;28;43897;-69
2021/09/28 05:23:09;;;;;;;;;;;;;;;;;;2072882;28;45874;-68
2021/09/28 05:24:10;;;;;;;;;;;;;;;;;;2081089;28;43277;-68
2021/09/28 05:25:11;;;;;;;;;;;;;;;;;;2080781;28;45225;-68
2021/09/28 05:26:13;;;;;;;;;;;;;;;;;;2080731;28;45449;-74
2021/09/28 05:27:15;;;;;;;;;;;;;;;;;;2080889;28;45520;-72
2021/09/28 05:28:16;;;;;;;;;;;;;;;;;;2080706;28;43017;-72
2021/09/28 05:29:18;;;;;;;;;;;;;;;;;;2089134;28;45207;-73
2021/09/28 05:30:20;;;;;;;;;;;;;;;;;;2081049;28;45632;-73
2021/09/28 05:31:21;;;;;;;;;;;;;;;;;;2080868;28;46400;-73
2021/09/28 05:32:23;;;;;;;;;;;;;;;;;;2080584;28;46085;-74
2021/09/28 05:33:25;;;;;;;;;;;;;;;;;;2080979;28;45543;-73
2021/09/28 05:34:26;;;;;;;;;;;;;;;;;;2080610;28;48544;-73
2021/09/28 05:35:28;;;;;;;;;;;;;;;;;;2080674;28;45185;-72
2021/09/28 05:36:29;;;;;;;;;;;;;;;;;;2080849;28;46409;-74
2021/09/28 05:37:31;;;;;;;;;;;;;;;;;;2081034;28;43577;-73
2021/09/28 05:38:32;;;;;;;;;;;;;;;;;;2088887;28;45597;-74
2021/09/28 05:39:34;;;;;;;;;;;;;;;;;;2089424;28;45645;-73
2021/09/28 05:40:35;;;;;;;;;;;;;;;;;;2080864;28;45445;-75
2021/09/28 05:41:37;;;;;;;;;;;;;;;;;;2073082;28;45537;-73
2021/09/28 05:42:38;;;;;;;;;;;;;;;;;;2080758;28;45305;-73
2021/09/28 05:43:40;;;;;;;;;;;;;;;;;;2080886;28;44128;-73
2021/09/28 05:44:41;;;;;;;;;;;;;;;;;;2072660;28;46638;-73
2021/09/28 05:45:43;;;;;;;;;;;;;;;;;;2072651;28;46677;-74
2021/09/28 05:46:44;;;;;;;;;;;;;;;;;;2080703;28;45743;-73
2021/09/28 05:47:47;;;;;;;;;;;;;;;;;;2088440;28;45435;-73
2021/09/28 05:48:49;;;;;;;;;;;;;;;;;;2080671;28;44000;-73
2021/09/28 05:49:52;;;;;;;;;;;;;;;;;;2072844;28;45092;-73
2021/09/28 05:50:53;;;;;;;;;;;;;;;;;;2072874;28;45431;-73
2021/09/28 05:51:55;;;;;;;;;;;;;;;;;;2072603;28;45431;-73
2021/09/28 05:52:57;;;;;;;;;;;;;;;;;;2073212;28;45332;-73
2021/09/28 05:54:01;;;;;;;;;;;;;;;;;;2072801;28;44549;-72
2021/09/28 05:55:02;;;;;;;;;;;;;;;;;;2080722;28;44318;-73
2021/09/28 05:56:04;;;;;;;;;;;;;;;;;;2080679;28;45311;-73
2021/09/28 05:57:05;;;;;;;;;;;;;;;;;;2080885;28;45684;-73
2021/09/28 05:58:06;;;;;;;;;;;;;;;;;;2080325;28;43934;-73
2021/09/28 05:59:08;;;;;;;;;;;;;;;;;;2080687;28;46827;-73
2021/09/28 06:00:10;;;;;;;;;;;;;;;;;;2088776;28;44108;-72
2021/09/28 06:01:12;;;;;;;;;;;;;;;;;;2081051;28;42332;-73
2021/09/28 06:02:14;;;;;;;;;;;;;;;;;;2080266;28;45010;-73
2021/09/28 06:03:16;;;;;;;;;;;;;;;;;;2080720;28;45403;-73
2021/09/28 06:04:17;;;;;;;;;;;;;;;;;;2072454;28;46886;-72
2021/09/28 06:05:20;;;;;;;;;;;;;;;;;;2072533;28;44747;-72
2021/09/28 06:06:26;;;;;;;;;;;;;;;;;;2072574;28;44622;-72
2021/09/28 06:07:28;;;;;;;;;;;;;;;;;;2081499;28;46092;-72
2021/09/28 06:08:30;;;;;;;;;;;;;;;;;;2088470;28;44905;-72
2021/09/28 06:09:32;;;;;;;;;;;;;;;;;;2088831;28;47013;-72
2021/09/28 06:10:34;;;;;;;;;;;;;;;;;;2088662;28;46211;-72
2021/09/28 06:11:35;;;;;;;;;;;;;;;;;;2088851;28;44617;-72
2021/09/28 06:12:37;;;;;;;;;;;;;;;;;;2080793;28;43493;-72
2021/09/28 06:13:38;;;;;;;;;;;;;;;;;;2080633;28;45760;-72
2021/09/28 06:14:41;;;;;;;;;;;;;;;;;;2080905;28;47043;-72
2021/09/28 06:15:42;;;;;;;;;;;;;;;;;;2080574;28;45521;-72
2021/09/28 06:16:44;;;;;;;;;;;;;;;;;;2080452;28;46649;-72
2021/09/28 06:17:45;;;;;;;;;;;;;;;;;;2088257;28;47000;-73
2021/09/28 06:18:48;;;;;;;;;;;;;;;;;;2081519;28;15198;-72
2021/09/28 06:19:49;;;;;;;;;;;;;;;;;;2088797;28;45837;-72
2021/09/28 06:20:51;;;;;;;;;;;;;;;;;;2080487;28;45698;-72
2021/09/28 06:21:52;;;;;;;;;;;;;;;;;;2080553;28;47003;-72
2021/09/28 06:22:54;;;;;;;;;;;;;;;;;;2080649;28;45856;-74
2021/09/28 06:23:55;;;;;;;;;;;;;;;;;;2073059;28;45308;-72
2021/09/28 06:24:57;;;;;;;;;;;;;;;;;;2080496;28;47206;-73
2021/09/28 06:25:58;;;;;;;;;;;;;;;;;;2089096;28;45776;-73
2021/09/28 06:27:01;;;;;;;;;;;;;;;;;;2088684;28;46670;-71
2021/09/28 06:28:02;;;;;;;;;;;;;;;;;;2080017;28;45233;-72
2021/09/28 06:29:04;;;;;;;;;;;;;;;;;;2080148;28;45232;-72
2021/09/28 06:30:05;;;;;;;;;;;;;;;;;;2080436;28;45155;-74
2021/09/28 06:31:07;;;;;;;;;;;;;;;;;;2080670;28;44202;-68
2021/09/28 06:32:08;;;;;;;;;;;;;;;;;;2088344;28;46393;-69
2021/09/28 06:33:09;;;;;;;;;;;;;;;;;;2080775;28;45075;-68
2021/09/28 06:34:11;;;;;;;;;;;;;;;;;;2080422;28;45330;-69
2021/09/28 06:35:12;;;;;;;;;;;;;;;;;;2080331;28;46305;-68
2021/09/28 06:36:14;;;;;;;;;;;;;;;;;;2075139;28;45317;-70
2021/09/28 06:37:15;;;;;;;;;;;;;;;;;;2072603;28;43842;-67
2021/09/28 06:38:17;;;;;;;;;;;;;;;;;;2079846;28;44037;-67
2021/09/28 06:39:18;;;;;;;;;;;;;;;;;;2081060;28;45069;-70
2021/09/28 06:40:20;;;;;;;;;;;;;;;;;;2080373;28;45832;-69
2021/09/28 06:41:21;;;;;;;;;;;;;;;;;;2080572;28;46454;-68
2021/09/28 06:42:23;;;;;;;;;;;;;;;;;;2080855;28;45206;-68
2021/09/28 06:43:24;;;;;;;;;;;;;;;;;;2088876;28;45404;-67
2021/09/28 06:44:28;;;;;;;;;;;;;;;;;;2088332;28;45301;-67
2021/09/28 06:45:29;;;;;;;;;;;;;;;;;;2080448;28;46409;-68
2021/09/28 06:46:32;;;;;;;;;;;;;;;;;;2080432;28;46441;-68
2021/09/28 06:47:34;;;;;;;;;;;;;;;;;;2088018;28;46171;-70
2021/09/28 06:48:35;;;;;;;;;;;;;;;;;;2080716;28;42235;-67
2021/09/28 06:49:37;;;;;;;;;;;;;;;;;;2088598;28;46387;-68
2021/09/28 06:50:38;;;;;;;;;;;;;;;;;;2080313;28;45358;-70
2021/09/28 06:51:39;;;;;;;;;;;;;;;;;;2080700;28;45563;-67
2021/09/28 06:52:43;;;;;;;;;;;;;;;;;;2088526;28;44111;-67
2021/09/28 06:53:45;;;;;;;;;;;;;;;;;;2081147;28;46651;-68
2021/09/28 06:54:46;;;;;;;;;;;;;;;;;;2080163;28;45543;-68
2021/09/28 06:55:47;;;;;;;;;;;;;;;;;;2080468;28;46927;-67
2021/09/28 06:56:49;;;;;;;;;;;;;;;;;;2088516;28;45609;-68
2021/09/28 06:57:50;;;;;;;;;;;;;;;;;;2080038;28;47026;-68
2021/09/28 06:58:52;;;;;;;;;;;;;;;;;;2080882;28;46614;-68
2021/09/28 06:59:53;;;;;;;;;;;;;;;;;;2080378;28;46614;-68
2021/09/28 07:00:58;;;;;;;;;;;;;;;;;;2080348;28;46666;-70
2021/09/28 07:01:59;;;;;;;;;;;;;;;;;;2088261;28;45422;-68